createdAt,value
2023-01-29T00:04:47.828Z,29.70
2023-01-29T00:09:49.343Z,29.90
2023-01-29T00:14:50.771Z,29.60
2023-01-29T00:19:52.244Z,27.85
2023-01-29T00:24:54.071Z,29.95
2023-01-29T00:29:55.521Z,27.70
2023-01-29T00:34:57.345Z,28.00
2023-01-29T00:39:58.954Z,29.20
2023-01-29T00:45:00.711Z,27.65
2023-01-29T00:50:08.410Z,27.55
2023-01-29T00:55:10.987Z,25.52
2023-01-29T01:00:15.122Z,24.75
2023-01-29T01:05:18.412Z,22.98
2023-01-29T01:10:23.177Z,21.63
2023-01-29T01:15:28.149Z,18.98
2023-01-29T01:20:32.106Z,20.42
2023-01-29T01:25:33.996Z,20.27
2023-01-29T01:30:35.795Z,19.75
2023-01-29T01:35:39.463Z,18.20
2023-01-29T01:40:45.158Z,19.40
2023-01-29T01:45:46.746Z,18.60
2023-01-29T01:50:56.179Z,17.65
2023-01-29T01:56:03.471Z,19.10
2023-01-29T02:01:08.031Z,18.90
2023-01-29T02:06:10.573Z,19.10
2023-01-29T02:11:12.477Z,18.63
2023-01-29T02:16:13.919Z,17.08
2023-01-29T02:21:32.171Z,17.17
2023-01-29T02:26:49.457Z,17.23
2023-01-29T02:32:03.908Z,19.00
2023-01-29T02:37:12.024Z,19.00
2023-01-29T02:42:38.812Z,16.40
2023-01-29T02:47:48.208Z,17.38
2023-01-29T02:52:54.645Z,18.10
2023-01-29T02:58:05.407Z,17.23
2023-01-29T03:03:18.721Z,17.15
2023-01-29T03:14:34.242Z,17.23
2023-01-29T03:19:41.374Z,16.67
2023-01-29T03:25:01.561Z,19.65
2023-01-29T03:35:09.935Z,17.10
2023-01-29T03:40:12.088Z,18.38
2023-01-29T03:45:35.229Z,19.15
2023-01-29T03:50:55.163Z,17.35
2023-01-29T03:56:09.055Z,17.38
2023-01-29T04:01:25.742Z,18.85
2023-01-29T04:06:34.404Z,17.02
2023-01-29T04:11:39.896Z,18.30
2023-01-29T04:16:48.164Z,20.20
2023-01-29T04:21:53.090Z,20.77
2023-01-29T04:27:19.328Z,18.70
2023-01-29T04:32:31.874Z,19.88
2023-01-29T04:37:35.885Z,19.27
2023-01-29T04:42:47.794Z,20.42
2023-01-29T04:48:10.738Z,18.67
2023-01-29T04:53:26.622Z,20.13
2023-01-29T04:58:47.507Z,19.02
2023-01-29T05:03:52.119Z,18.33
2023-01-29T05:08:54.735Z,19.77
2023-01-29T05:13:57.018Z,18.50
2023-01-29T05:18:58.610Z,19.38
2023-01-29T05:24:07.532Z,19.08
2023-01-29T05:29:09.172Z,20.65
2023-01-29T05:34:10.611Z,19.45
2023-01-29T05:39:12.556Z,19.88
2023-01-29T05:44:14.034Z,18.40
2023-01-29T05:49:17.345Z,20.15
2023-01-29T05:54:19.628Z,19.55
2023-01-29T05:59:21.358Z,18.10
2023-01-29T06:04:22.864Z,17.20
2023-01-29T06:09:24.333Z,21.63
2023-01-29T06:14:26.050Z,19.23
2023-01-29T06:19:27.511Z,18.73
2023-01-29T06:24:28.930Z,17.05
2023-01-29T06:29:30.381Z,18.45
2023-01-29T06:34:31.757Z,19.02
2023-01-29T06:39:33.748Z,19.63
2023-01-29T06:44:35.325Z,19.02
2023-01-29T06:49:36.695Z,18.27
2023-01-29T06:54:38.114Z,18.02
2023-01-29T06:59:39.520Z,18.58
2023-01-29T07:04:40.977Z,20.80
2023-01-29T07:15:39.614Z,19.30
2023-01-29T07:20:42.800Z,19.65
2023-01-29T07:25:46.652Z,20.13
2023-01-29T07:30:48.142Z,19.33
2023-01-29T07:35:52.949Z,20.30
2023-01-29T07:40:54.702Z,18.02
2023-01-29T07:45:56.201Z,20.83
2023-01-29T07:50:58.067Z,19.27
2023-01-29T07:55:59.918Z,19.73
2023-01-29T08:01:05.635Z,21.58
2023-01-29T08:06:07.568Z,21.10
2023-01-29T08:11:08.955Z,19.95
2023-01-29T08:16:10.621Z,21.55
2023-01-29T08:21:13.761Z,20.48
2023-01-29T08:26:15.468Z,22.05
2023-01-29T08:31:18.169Z,20.25
2023-01-29T08:36:19.555Z,22.20
2023-01-29T08:41:20.903Z,21.88
2023-01-29T08:46:24.002Z,22.23
2023-01-29T08:51:25.929Z,22.20
2023-01-29T08:56:27.395Z,22.02
2023-01-29T09:01:28.849Z,20.60
2023-01-29T09:06:30.465Z,20.92
2023-01-29T09:11:31.975Z,21.27
2023-01-29T09:16:33.438Z,22.23
2023-01-29T09:21:34.845Z,22.60
2023-01-29T09:26:36.288Z,21.90
2023-01-29T09:31:37.803Z,22.83
2023-01-29T09:36:39.541Z,22.08
2023-01-29T09:41:54.832Z,22.40
2023-01-29T09:46:56.880Z,21.33
2023-01-29T09:52:17.957Z,23.60
2023-01-29T09:57:25.632Z,20.20
2023-01-29T10:02:56.188Z,21.83
2023-01-29T10:08:18.246Z,22.80
2023-01-29T10:31:38.732Z,23.50
2023-01-29T10:36:44.666Z,24.63
2023-01-29T10:42:13.861Z,22.98
2023-01-29T10:47:33.996Z,23.60
2023-01-29T10:57:56.149Z,22.42
2023-01-29T11:02:57.760Z,22.90
2023-01-29T11:08:23.818Z,23.42
2023-01-29T11:13:32.521Z,25.52
2023-01-29T11:18:54.566Z,22.88
2023-01-29T11:24:10.949Z,21.65
2023-01-29T11:29:42.467Z,25.27
2023-01-29T11:35:03.959Z,22.60
2023-01-29T11:40:37.493Z,24.23
2023-01-29T11:45:40.089Z,24.25
2023-01-29T11:50:41.739Z,21.42
2023-01-29T11:55:50.934Z,22.23
2023-01-29T12:00:53.789Z,24.50
2023-01-29T12:06:08.339Z,23.85
2023-01-29T12:11:12.097Z,23.60
2023-01-29T12:16:45.547Z,23.52
2023-01-29T12:21:53.767Z,21.67
2023-01-29T12:27:05.054Z,24.17
2023-01-29T12:32:20.359Z,23.45
2023-01-29T12:37:38.001Z,22.63
2023-01-29T12:42:44.421Z,23.98
2023-01-29T12:47:54.267Z,20.60
2023-01-29T12:53:20.935Z,21.60
2023-01-29T12:58:30.263Z,22.08
2023-01-29T13:03:49.023Z,19.77
2023-01-29T13:09:05.918Z,21.08
2023-01-29T13:14:13.268Z,22.38
2023-01-29T13:19:25.178Z,20.35
2023-01-29T13:24:35.468Z,20.08
2023-01-29T13:29:37.786Z,20.92
2023-01-29T13:34:46.964Z,20.38
2023-01-29T13:39:52.208Z,20.35
2023-01-29T13:45:01.611Z,20.23
2023-01-29T13:50:09.187Z,23.13
2023-01-29T13:55:13.650Z,19.80
2023-01-29T14:00:22.203Z,18.15
2023-01-29T14:05:29.719Z,19.42
2023-01-29T14:10:33.767Z,21.17
2023-01-29T14:15:36.495Z,19.65
2023-01-29T14:20:48.823Z,20.60
2023-01-29T14:25:50.680Z,22.35
2023-01-29T14:30:52.693Z,19.08
2023-01-29T14:35:59.599Z,21.52
2023-01-29T14:41:17.197Z,20.38
2023-01-29T14:46:33.797Z,20.73
2023-01-29T14:51:38.660Z,21.77
2023-01-29T14:56:59.535Z,19.60
2023-01-29T15:02:14.540Z,25.02
2023-01-29T15:07:23.428Z,21.23
2023-01-29T15:12:46.642Z,18.95
2023-01-29T15:18:12.981Z,21.65
2023-01-29T15:23:35.538Z,15.50
2023-01-29T15:28:38.575Z,16.45
2023-01-29T15:33:44.803Z,14.48
2023-01-29T15:38:46.322Z,12.63
2023-01-29T15:43:58.611Z,11.88
2023-01-29T15:49:05.883Z,7.10
2023-01-29T15:54:15.437Z,5.97
2023-01-29T15:59:22.043Z,6.47
2023-01-29T16:04:27.031Z,6.47
2023-01-29T16:09:29.690Z,6.18
2023-01-29T16:14:31.590Z,5.65
2023-01-29T16:19:33.186Z,6.07
2023-01-29T16:24:37.092Z,5.72
2023-01-29T16:29:38.612Z,6.10
2023-01-29T16:34:45.343Z,5.80
2023-01-29T16:39:49.554Z,6.15
2023-01-29T16:50:06.049Z,7.38
2023-01-29T16:55:13.214Z,5.57
2023-01-29T17:00:26.559Z,6.28
2023-01-29T17:05:31.586Z,8.13
2023-01-29T17:10:33.978Z,6.82
2023-01-29T17:15:41.306Z,7.85
2023-01-29T17:20:42.868Z,7.63
2023-01-29T17:25:45.655Z,8.00
2023-01-29T17:31:00.272Z,8.18
2023-01-29T17:36:11.594Z,8.43
2023-01-29T17:41:26.807Z,7.45
2023-01-29T17:46:28.201Z,9.30
2023-01-29T17:51:29.717Z,7.18
2023-01-29T17:56:31.152Z,8.07
2023-01-29T18:01:32.574Z,9.10
2023-01-29T18:06:34.050Z,9.32
2023-01-29T18:11:35.445Z,10.30
2023-01-29T18:16:37.283Z,10.68
2023-01-29T18:21:38.726Z,10.48
2023-01-29T18:26:40.763Z,10.02
2023-01-29T18:31:42.550Z,10.32
2023-01-29T18:36:44.098Z,10.82
2023-01-29T18:41:45.599Z,10.48
2023-01-29T18:46:47.074Z,11.13
2023-01-29T18:51:48.417Z,12.13
2023-01-29T18:57:13.216Z,11.77
2023-01-29T19:02:16.036Z,10.05
2023-01-29T19:07:17.429Z,11.18
2023-01-29T19:12:18.887Z,8.77
2023-01-29T19:17:20.368Z,9.32
2023-01-29T19:22:21.932Z,10.98
2023-01-29T19:27:26.782Z,10.13
2023-01-29T19:32:28.647Z,10.30
2023-01-29T19:37:30.201Z,11.77
2023-01-29T19:42:31.563Z,11.48
2023-01-29T19:47:37.830Z,12.48
2023-01-29T19:52:50.746Z,12.07
2023-01-29T19:57:53.277Z,10.23
2023-01-29T20:02:55.154Z,11.23
2023-01-29T20:07:56.567Z,12.63
2023-01-29T20:12:57.975Z,13.07
2023-01-29T20:17:59.396Z,11.13
2023-01-29T20:23:00.779Z,12.90
2023-01-29T20:28:02.175Z,11.77
2023-01-29T20:33:04.749Z,13.77
2023-01-29T20:38:06.252Z,13.35
2023-01-29T20:43:07.597Z,15.43
2023-01-29T20:48:09.186Z,14.68
2023-01-29T20:53:11.346Z,12.63
2023-01-29T20:58:13.015Z,12.45
2023-01-29T21:03:14.469Z,15.10
2023-01-29T21:08:15.915Z,13.20
2023-01-29T21:13:17.448Z,11.02
2023-01-29T21:18:19.014Z,13.70
2023-01-29T21:23:21.201Z,12.20
2023-01-29T21:28:22.772Z,14.07
2023-01-29T21:33:24.171Z,12.15
2023-01-29T21:38:25.714Z,14.82
2023-01-29T21:43:27.484Z,13.90
2023-01-29T21:48:28.943Z,12.88
2023-01-29T21:53:30.507Z,12.98
2023-01-29T21:58:32.233Z,11.50
2023-01-29T22:03:33.707Z,12.73
2023-01-29T22:08:35.168Z,11.57
2023-01-29T22:13:37.015Z,11.10
2023-01-29T22:18:38.370Z,11.30
2023-01-29T22:23:39.739Z,11.85
2023-01-29T22:28:41.132Z,11.52
2023-01-29T22:33:45.995Z,12.30
2023-01-29T22:38:47.430Z,12.07
2023-01-29T22:43:48.826Z,11.98
2023-01-29T22:48:50.234Z,11.23
2023-01-29T22:53:54.397Z,10.60
2023-01-29T22:59:00.911Z,12.10
2023-01-29T23:04:02.554Z,11.85
2023-01-29T23:09:03.985Z,11.60
2023-01-29T23:14:05.693Z,11.25
2023-01-29T23:19:07.315Z,11.07
2023-01-29T23:24:09.367Z,11.90
2023-01-29T23:29:12.523Z,12.23
2023-01-29T23:34:14.584Z,10.68
2023-01-29T23:39:16.033Z,11.73
2023-01-29T23:44:17.376Z,10.88
2023-01-29T23:49:18.983Z,9.60
2023-01-29T23:54:20.551Z,11.00
2023-01-29T23:59:22.196Z,10.48
